sensor_id;sensor_type;location;lat;lon;timestamp;temperature;humidity
21662;DHT22;10992;48.170;8.596;2024-01-25T00:01:52;6.60;99.90
21662;DHT22;10992;48.170;8.596;2024-01-25T00:04:21;6.50;99.90
21662;DHT22;10992;48.170;8.596;2024-01-25T00:06:48;6.50;99.90
21662;DHT22;10992;48.170;8.596;2024-01-25T00:09:16;6.40;99.90
21662;DHT22;10992;48.170;8.596;2024-01-25T00:11:43;6.40;99.90
21662;DHT22;10992;48.170;8.596;2024-01-25T00:14:09;6.30;99.90
21662;DHT22;10992;48.170;8.596;2024-01-25T00:16:40;6.30;99.90
21662;DHT22;10992;48.170;8.596;2024-01-25T00:19:08;6.20;99.90
21662;DHT22;10992;48.170;8.596;2024-01-25T00:21:35;6.10;99.90
21662;DHT22;10992;48.170;8.596;2024-01-25T00:24:08;6.00;99.90
21662;DHT22;10992;48.170;8.596;2024-01-25T00:26:34;5.90;99.90
21662;DHT22;10992;48.170;8.596;2024-01-25T00:29:01;5.90;99.90
21662;DHT22;10992;48.170;8.596;2024-01-25T00:31:28;5.90;99.90
21662;DHT22;10992;48.170;8.596;2024-01-25T00:33:55;5.90;99.90
21662;DHT22;10992;48.170;8.596;2024-01-25T00:36:22;5.90;99.90
21662;DHT22;10992;48.170;8.596;2024-01-25T00:38:49;5.90;99.90
21662;DHT22;10992;48.170;8.596;2024-01-25T00:41:18;5.90;99.90
21662;DHT22;10992;48.170;8.596;2024-01-25T00:43:48;5.90;99.90
21662;DHT22;10992;48.170;8.596;2024-01-25T00:46:15;6.00;99.90
21662;DHT22;10992;48.170;8.596;2024-01-25T00:48:42;6.20;99.90
21662;DHT22;10992;48.170;8.596;2024-01-25T00:51:15;6.30;99.90
21662;DHT22;10992;48.170;8.596;2024-01-25T00:53:43;6.40;99.90
21662;DHT22;10992;48.170;8.596;2024-01-25T00:56:10;6.50;99.90
21662;DHT22;10992;48.170;8.596;2024-01-25T00:58:38;6.50;99.90
21662;DHT22;10992;48.170;8.596;2024-01-25T01:01:05;6.50;99.90
21662;DHT22;10992;48.170;8.596;2024-01-25T01:03:32;6.40;99.90
21662;DHT22;10992;48.170;8.596;2024-01-25T01:06:00;6.50;99.90
21662;DHT22;10992;48.170;8.596;2024-01-25T01:08:28;6.50;99.90
21662;DHT22;10992;48.170;8.596;2024-01-25T01:10:55;6.50;99.90
21662;DHT22;10992;48.170;8.596;2024-01-25T01:13:22;6.50;99.90
21662;DHT22;10992;48.170;8.596;2024-01-25T01:15:49;6.50;99.90
21662;DHT22;10992;48.170;8.596;2024-01-25T01:18:16;6.50;99.90
21662;DHT22;10992;48.170;8.596;2024-01-25T01:20:43;6.50;99.90
21662;DHT22;10992;48.170;8.596;2024-01-25T01:23:12;6.50;99.90
21662;DHT22;10992;48.170;8.596;2024-01-25T01:25:39;6.60;99.90
21662;DHT22;10992;48.170;8.596;2024-01-25T01:28:06;6.60;99.90
21662;DHT22;10992;48.170;8.596;2024-01-25T01:30:33;6.60;99.90
21662;DHT22;10992;48.170;8.596;2024-01-25T01:33:00;6.60;99.90
21662;DHT22;10992;48.170;8.596;2024-01-25T01:35:27;6.60;99.90
21662;DHT22;10992;48.170;8.596;2024-01-25T01:37:54;6.50;99.90
21662;DHT22;10992;48.170;8.596;2024-01-25T01:40:20;6.60;99.90
21662;DHT22;10992;48.170;8.596;2024-01-25T01:42:47;6.50;99.90
21662;DHT22;10992;48.170;8.596;2024-01-25T01:45:14;6.60;99.90
21662;DHT22;10992;48.170;8.596;2024-01-25T01:47:41;6.50;99.90
21662;DHT22;10992;48.170;8.596;2024-01-25T01:50:09;6.60;99.90
21662;DHT22;10992;48.170;8.596;2024-01-25T01:52:37;6.60;99.90
21662;DHT22;10992;48.170;8.596;2024-01-25T01:55:04;6.50;99.90
21662;DHT22;10992;48.170;8.596;2024-01-25T01:57:31;6.60;99.90
21662;DHT22;10992;48.170;8.596;2024-01-25T01:59:59;6.50;99.90
21662;DHT22;10992;48.170;8.596;2024-01-25T02:02:37;6.50;99.90
21662;DHT22;10992;48.170;8.596;2024-01-25T02:05:04;6.50;99.90
21662;DHT22;10992;48.170;8.596;2024-01-25T02:07:32;6.40;99.90
21662;DHT22;10992;48.170;8.596;2024-01-25T02:09:59;6.30;99.90
21662;DHT22;10992;48.170;8.596;2024-01-25T02:12:26;6.20;99.90
21662;DHT22;10992;48.170;8.596;2024-01-25T02:14:53;6.20;99.90
21662;DHT22;10992;48.170;8.596;2024-01-25T02:17:20;6.20;99.90
21662;DHT22;10992;48.170;8.596;2024-01-25T02:19:46;6.10;99.90
21662;DHT22;10992;48.170;8.596;2024-01-25T02:22:20;6.00;99.90
21662;DHT22;10992;48.170;8.596;2024-01-25T02:24:47;6.10;99.90
21662;DHT22;10992;48.170;8.596;2024-01-25T02:27:14;6.10;99.90
21662;DHT22;10992;48.170;8.596;2024-01-25T02:29:41;6.10;99.90
21662;DHT22;10992;48.170;8.596;2024-01-25T02:32:08;6.10;99.90
21662;DHT22;10992;48.170;8.596;2024-01-25T02:34:35;6.10;99.90
21662;DHT22;10992;48.170;8.596;2024-01-25T02:37:02;6.20;99.90
21662;DHT22;10992;48.170;8.596;2024-01-25T02:39:29;6.20;99.90
21662;DHT22;10992;48.170;8.596;2024-01-25T02:41:57;6.30;99.90
21662;DHT22;10992;48.170;8.596;2024-01-25T02:44:23;6.30;99.90
21662;DHT22;10992;48.170;8.596;2024-01-25T02:46:50;6.30;99.90
21662;DHT22;10992;48.170;8.596;2024-01-25T02:49:17;6.30;99.90
21662;DHT22;10992;48.170;8.596;2024-01-25T02:51:44;6.30;99.90
21662;DHT22;10992;48.170;8.596;2024-01-25T02:54:11;6.30;99.90
21662;DHT22;10992;48.170;8.596;2024-01-25T02:56:38;6.20;99.90
21662;DHT22;10992;48.170;8.596;2024-01-25T02:59:05;6.10;99.90
21662;DHT22;10992;48.170;8.596;2024-01-25T03:01:41;6.10;99.90
21662;DHT22;10992;48.170;8.596;2024-01-25T03:04:09;6.10;99.90
21662;DHT22;10992;48.170;8.596;2024-01-25T03:06:36;6.00;99.90
21662;DHT22;10992;48.170;8.596;2024-01-25T03:09:04;6.00;99.90
21662;DHT22;10992;48.170;8.596;2024-01-25T03:11:33;6.00;99.90
21662;DHT22;10992;48.170;8.596;2024-01-25T03:14:00;6.00;99.90
21662;DHT22;10992;48.170;8.596;2024-01-25T03:16:27;6.00;99.90
21662;DHT22;10992;48.170;8.596;2024-01-25T03:18:54;6.10;99.90
21662;DHT22;10992;48.170;8.596;2024-01-25T03:21:21;6.10;99.90
21662;DHT22;10992;48.170;8.596;2024-01-25T03:23:48;6.10;99.90
21662;DHT22;10992;48.170;8.596;2024-01-25T03:26:14;6.00;99.90
21662;DHT22;10992;48.170;8.596;2024-01-25T03:28:41;6.10;99.90
21662;DHT22;10992;48.170;8.596;2024-01-25T03:31:08;6.00;99.90
21662;DHT22;10992;48.170;8.596;2024-01-25T03:33:35;6.10;99.90
21662;DHT22;10992;48.170;8.596;2024-01-25T03:36:03;6.00;99.90
21662;DHT22;10992;48.170;8.596;2024-01-25T03:38:31;6.00;99.90
21662;DHT22;10992;48.170;8.596;2024-01-25T03:40:57;6.00;99.90
21662;DHT22;10992;48.170;8.596;2024-01-25T03:43:25;6.00;99.90
21662;DHT22;10992;48.170;8.596;2024-01-25T03:46:01;6.00;99.90
21662;DHT22;10992;48.170;8.596;2024-01-25T03:48:30;6.00;99.90
21662;DHT22;10992;48.170;8.596;2024-01-25T03:50:57;6.00;99.90
21662;DHT22;10992;48.170;8.596;2024-01-25T03:53:24;6.00;99.90
21662;DHT22;10992;48.170;8.596;2024-01-25T03:55:51;6.00;99.90
21662;DHT22;10992;48.170;8.596;2024-01-25T03:58:18;6.00;99.90
21662;DHT22;10992;48.170;8.596;2024-01-25T04:00:45;6.00;99.90
21662;DHT22;10992;48.170;8.596;2024-01-25T04:03:12;6.10;99.90
21662;DHT22;10992;48.170;8.596;2024-01-25T04:05:39;6.00;99.90
21662;DHT22;10992;48.170;8.596;2024-01-25T04:08:06;6.10;99.90
21662;DHT22;10992;48.170;8.596;2024-01-25T04:10:33;6.10;99.90
21662;DHT22;10992;48.170;8.596;2024-01-25T04:13:00;6.20;99.90
21662;DHT22;10992;48.170;8.596;2024-01-25T04:15:28;6.10;99.90
21662;DHT22;10992;48.170;8.596;2024-01-25T04:17:56;6.10;99.90
21662;DHT22;10992;48.170;8.596;2024-01-25T04:20:23;6.00;99.90
21662;DHT22;10992;48.170;8.596;2024-01-25T04:22:50;6.00;99.90
21662;DHT22;10992;48.170;8.596;2024-01-25T04:25:17;6.00;99.90
21662;DHT22;10992;48.170;8.596;2024-01-25T04:27:44;5.90;99.90
21662;DHT22;10992;48.170;8.596;2024-01-25T04:30:11;5.90;99.90
21662;DHT22;10992;48.170;8.596;2024-01-25T04:32:38;5.90;99.90
21662;DHT22;10992;48.170;8.596;2024-01-25T04:35:05;5.90;99.90
21662;DHT22;10992;48.170;8.596;2024-01-25T04:37:32;5.80;99.90
21662;DHT22;10992;48.170;8.596;2024-01-25T04:40:00;5.90;99.90
21662;DHT22;10992;48.170;8.596;2024-01-25T04:42:27;5.80;99.90
21662;DHT22;10992;48.170;8.596;2024-01-25T04:44:54;5.80;99.90
21662;DHT22;10992;48.170;8.596;2024-01-25T04:47:21;5.90;99.90
21662;DHT22;10992;48.170;8.596;2024-01-25T04:49:48;5.90;99.90
21662;DHT22;10992;48.170;8.596;2024-01-25T04:52:15;5.80;99.90
21662;DHT22;10992;48.170;8.596;2024-01-25T04:54:42;5.80;99.90
21662;DHT22;10992;48.170;8.596;2024-01-25T04:57:09;5.80;99.90
21662;DHT22;10992;48.170;8.596;2024-01-25T04:59:36;5.80;99.90
21662;DHT22;10992;48.170;8.596;2024-01-25T05:02:03;5.80;99.90
21662;DHT22;10992;48.170;8.596;2024-01-25T05:04:30;5.90;99.90
21662;DHT22;10992;48.170;8.596;2024-01-25T05:06:58;5.90;99.90
21662;DHT22;10992;48.170;8.596;2024-01-25T05:09:25;5.90;99.90
21662;DHT22;10992;48.170;8.596;2024-01-25T05:11:52;5.90;99.90
21662;DHT22;10992;48.170;8.596;2024-01-25T05:14:19;5.90;99.90
21662;DHT22;10992;48.170;8.596;2024-01-25T05:16:46;5.90;99.90
21662;DHT22;10992;48.170;8.596;2024-01-25T05:19:12;5.90;99.90
21662;DHT22;10992;48.170;8.596;2024-01-25T05:21:39;5.90;99.90
21662;DHT22;10992;48.170;8.596;2024-01-25T05:24:06;5.90;99.90
21662;DHT22;10992;48.170;8.596;2024-01-25T05:26:34;5.70;99.90
21662;DHT22;10992;48.170;8.596;2024-01-25T05:29:01;5.80;99.90
21662;DHT22;10992;48.170;8.596;2024-01-25T05:31:28;5.80;99.90
21662;DHT22;10992;48.170;8.596;2024-01-25T05:33:55;5.80;99.90
21662;DHT22;10992;48.170;8.596;2024-01-25T05:36:22;5.80;99.90
21662;DHT22;10992;48.170;8.596;2024-01-25T05:38:49;5.90;99.90
21662;DHT22;10992;48.170;8.596;2024-01-25T05:41:15;5.80;99.90
21662;DHT22;10992;48.170;8.596;2024-01-25T05:43:42;5.70;99.90
21662;DHT22;10992;48.170;8.596;2024-01-25T05:46:09;5.70;99.90
21662;DHT22;10992;48.170;8.596;2024-01-25T05:48:36;5.70;99.90
21662;DHT22;10992;48.170;8.596;2024-01-25T05:51:03;5.60;99.90
21662;DHT22;10992;48.170;8.596;2024-01-25T05:53:30;5.60;99.90
21662;DHT22;10992;48.170;8.596;2024-01-25T05:55:57;5.60;99.90
21662;DHT22;10992;48.170;8.596;2024-01-25T05:58:24;5.70;99.90
21662;DHT22;10992;48.170;8.596;2024-01-25T06:00:51;5.60;99.90
21662;DHT22;10992;48.170;8.596;2024-01-25T06:03:18;5.60;99.90
21662;DHT22;10992;48.170;8.596;2024-01-25T06:05:45;5.60;99.90
21662;DHT22;10992;48.170;8.596;2024-01-25T06:08:12;5.50;99.90
21662;DHT22;10992;48.170;8.596;2024-01-25T06:10:39;5.50;99.90
21662;DHT22;10992;48.170;8.596;2024-01-25T06:13:06;5.50;99.90
21662;DHT22;10992;48.170;8.596;2024-01-25T06:15:33;5.50;99.90
21662;DHT22;10992;48.170;8.596;2024-01-25T06:18:00;5.50;99.90
21662;DHT22;10992;48.170;8.596;2024-01-25T06:20:27;5.50;99.90
21662;DHT22;10992;48.170;8.596;2024-01-25T06:22:54;5.50;99.90
21662;DHT22;10992;48.170;8.596;2024-01-25T06:25:21;5.50;99.90
21662;DHT22;10992;48.170;8.596;2024-01-25T06:27:49;5.50;99.90
21662;DHT22;10992;48.170;8.596;2024-01-25T06:30:16;5.50;99.90
21662;DHT22;10992;48.170;8.596;2024-01-25T06:32:43;5.50;99.90
21662;DHT22;10992;48.170;8.596;2024-01-25T06:35:10;5.50;99.90
21662;DHT22;10992;48.170;8.596;2024-01-25T06:37:37;5.50;99.90
21662;DHT22;10992;48.170;8.596;2024-01-25T06:40:04;5.60;99.90
21662;DHT22;10992;48.170;8.596;2024-01-25T06:42:32;5.60;99.90
21662;DHT22;10992;48.170;8.596;2024-01-25T06:44:59;5.50;99.90
21662;DHT22;10992;48.170;8.596;2024-01-25T06:47:26;5.50;99.90
21662;DHT22;10992;48.170;8.596;2024-01-25T06:49:52;5.50;99.90
21662;DHT22;10992;48.170;8.596;2024-01-25T06:52:19;5.50;99.90
21662;DHT22;10992;48.170;8.596;2024-01-25T06:54:47;5.50;99.90
21662;DHT22;10992;48.170;8.596;2024-01-25T06:57:14;5.50;99.90
21662;DHT22;10992;48.170;8.596;2024-01-25T06:59:41;5.60;99.90
21662;DHT22;10992;48.170;8.596;2024-01-25T07:02:08;5.60;99.90
21662;DHT22;10992;48.170;8.596;2024-01-25T07:04:36;5.60;99.90
21662;DHT22;10992;48.170;8.596;2024-01-25T07:07:05;5.70;99.90
21662;DHT22;10992;48.170;8.596;2024-01-25T07:09:32;5.60;99.90
21662;DHT22;10992;48.170;8.596;2024-01-25T07:11:59;5.60;99.90
21662;DHT22;10992;48.170;8.596;2024-01-25T07:14:26;5.60;99.90
21662;DHT22;10992;48.170;8.596;2024-01-25T07:16:53;5.60;99.90
21662;DHT22;10992;48.170;8.596;2024-01-25T07:19:19;5.50;99.90
21662;DHT22;10992;48.170;8.596;2024-01-25T07:21:46;5.50;99.90
21662;DHT22;10992;48.170;8.596;2024-01-25T07:24:14;5.40;99.90
21662;DHT22;10992;48.170;8.596;2024-01-25T07:26:41;5.40;99.90
21662;DHT22;10992;48.170;8.596;2024-01-25T07:29:08;5.50;99.90
21662;DHT22;10992;48.170;8.596;2024-01-25T07:31:35;5.40;99.90
21662;DHT22;10992;48.170;8.596;2024-01-25T07:34:02;5.40;99.90
21662;DHT22;10992;48.170;8.596;2024-01-25T07:36:29;5.40;99.90
21662;DHT22;10992;48.170;8.596;2024-01-25T07:38:56;5.50;99.90
21662;DHT22;10992;48.170;8.596;2024-01-25T07:41:23;5.50;99.90
21662;DHT22;10992;48.170;8.596;2024-01-25T07:43:50;5.50;99.90
21662;DHT22;10992;48.170;8.596;2024-01-25T07:46:21;5.50;99.90
21662;DHT22;10992;48.170;8.596;2024-01-25T07:48:50;5.50;99.90
21662;DHT22;10992;48.170;8.596;2024-01-25T07:51:17;5.50;99.90
21662;DHT22;10992;48.170;8.596;2024-01-25T07:53:44;5.40;99.90
21662;DHT22;10992;48.170;8.596;2024-01-25T07:56:11;5.50;99.90
21662;DHT22;10992;48.170;8.596;2024-01-25T07:58:39;5.50;99.90
21662;DHT22;10992;48.170;8.596;2024-01-25T08:01:06;5.50;99.90
21662;DHT22;10992;48.170;8.596;2024-01-25T08:03:33;5.50;99.90
21662;DHT22;10992;48.170;8.596;2024-01-25T08:06:02;5.50;99.90
21662;DHT22;10992;48.170;8.596;2024-01-25T08:08:30;5.50;99.90
21662;DHT22;10992;48.170;8.596;2024-01-25T08:10:57;5.50;99.90
21662;DHT22;10992;48.170;8.596;2024-01-25T08:13:25;5.60;99.90
21662;DHT22;10992;48.170;8.596;2024-01-25T08:15:57;5.60;99.90
21662;DHT22;10992;48.170;8.596;2024-01-25T08:18:24;5.60;99.90
21662;DHT22;10992;48.170;8.596;2024-01-25T08:20:51;5.60;99.90
21662;DHT22;10992;48.170;8.596;2024-01-25T08:23:19;5.60;99.90
21662;DHT22;10992;48.170;8.596;2024-01-25T08:25:45;5.70;99.90
21662;DHT22;10992;48.170;8.596;2024-01-25T08:28:12;5.60;99.90
21662;DHT22;10992;48.170;8.596;2024-01-25T08:30:39;5.70;99.90
21662;DHT22;10992;48.170;8.596;2024-01-25T08:33:06;5.90;99.90
21662;DHT22;10992;48.170;8.596;2024-01-25T08:35:33;5.90;99.90
21662;DHT22;10992;48.170;8.596;2024-01-25T08:38:01;5.90;99.90
21662;DHT22;10992;48.170;8.596;2024-01-25T08:40:28;5.90;99.90
21662;DHT22;10992;48.170;8.596;2024-01-25T08:42:56;5.90;99.90
21662;DHT22;10992;48.170;8.596;2024-01-25T08:45:23;5.90;99.90
21662;DHT22;10992;48.170;8.596;2024-01-25T08:47:50;6.00;99.90
21662;DHT22;10992;48.170;8.596;2024-01-25T08:50:18;6.00;99.90
21662;DHT22;10992;48.170;8.596;2024-01-25T08:52:45;6.00;99.90
21662;DHT22;10992;48.170;8.596;2024-01-25T08:55:12;6.10;99.90
21662;DHT22;10992;48.170;8.596;2024-01-25T08:57:39;6.20;99.90
21662;DHT22;10992;48.170;8.596;2024-01-25T09:00:08;6.20;99.90
21662;DHT22;10992;48.170;8.596;2024-01-25T09:02:38;6.30;99.90
21662;DHT22;10992;48.170;8.596;2024-01-25T09:05:05;6.30;99.90
21662;DHT22;10992;48.170;8.596;2024-01-25T09:07:33;6.30;99.90
21662;DHT22;10992;48.170;8.596;2024-01-25T09:10:00;6.30;99.90
21662;DHT22;10992;48.170;8.596;2024-01-25T09:12:27;6.30;99.90
21662;DHT22;10992;48.170;8.596;2024-01-25T09:14:54;6.30;99.90
21662;DHT22;10992;48.170;8.596;2024-01-25T09:17:21;6.30;99.90
21662;DHT22;10992;48.170;8.596;2024-01-25T09:19:51;6.30;99.90
21662;DHT22;10992;48.170;8.596;2024-01-25T09:22:19;6.40;99.90
21662;DHT22;10992;48.170;8.596;2024-01-25T09:24:46;6.50;99.90
21662;DHT22;10992;48.170;8.596;2024-01-25T09:27:14;6.60;99.90
21662;DHT22;10992;48.170;8.596;2024-01-25T09:29:42;6.60;99.90
21662;DHT22;10992;48.170;8.596;2024-01-25T09:32:10;6.70;99.90
21662;DHT22;10992;48.170;8.596;2024-01-25T09:34:38;6.60;99.90
21662;DHT22;10992;48.170;8.596;2024-01-25T09:37:07;6.70;99.90
21662;DHT22;10992;48.170;8.596;2024-01-25T09:39:34;6.80;99.90
21662;DHT22;10992;48.170;8.596;2024-01-25T09:42:03;6.90;99.90
21662;DHT22;10992;48.170;8.596;2024-01-25T09:44:31;7.00;99.90
21662;DHT22;10992;48.170;8.596;2024-01-25T09:47:03;7.20;99.90
21662;DHT22;10992;48.170;8.596;2024-01-25T09:49:32;7.20;99.90
21662;DHT22;10992;48.170;8.596;2024-01-25T09:52:02;7.30;99.90
21662;DHT22;10992;48.170;8.596;2024-01-25T09:54:34;7.30;99.90
21662;DHT22;10992;48.170;8.596;2024-01-25T09:57:07;7.50;99.90
21662;DHT22;10992;48.170;8.596;2024-01-25T09:59:35;7.50;99.90
21662;DHT22;10992;48.170;8.596;2024-01-25T10:02:02;7.40;99.90
21662;DHT22;10992;48.170;8.596;2024-01-25T10:04:30;7.60;99.90
21662;DHT22;10992;48.170;8.596;2024-01-25T10:06:58;7.50;99.90
21662;DHT22;10992;48.170;8.596;2024-01-25T10:09:26;7.60;99.90
21662;DHT22;10992;48.170;8.596;2024-01-25T10:11:53;7.80;99.90
21662;DHT22;10992;48.170;8.596;2024-01-25T10:14:41;8.00;99.90
21662;DHT22;10992;48.170;8.596;2024-01-25T10:17:07;8.20;99.90
21662;DHT22;10992;48.170;8.596;2024-01-25T10:19:34;8.40;99.90
21662;DHT22;10992;48.170;8.596;2024-01-25T10:22:06;8.40;99.90
21662;DHT22;10992;48.170;8.596;2024-01-25T10:24:34;8.50;99.90
21662;DHT22;10992;48.170;8.596;2024-01-25T10:27:02;8.60;99.90
21662;DHT22;10992;48.170;8.596;2024-01-25T10:29:31;8.70;99.90
21662;DHT22;10992;48.170;8.596;2024-01-25T10:31:58;9.40;99.90
21662;DHT22;10992;48.170;8.596;2024-01-25T10:34:26;9.70;99.90
21662;DHT22;10992;48.170;8.596;2024-01-25T10:36:55;9.80;99.90
21662;DHT22;10992;48.170;8.596;2024-01-25T10:39:24;10.20;99.90
21662;DHT22;10992;48.170;8.596;2024-01-25T10:41:51;10.60;99.90
21662;DHT22;10992;48.170;8.596;2024-01-25T10:44:19;10.40;99.90
21662;DHT22;10992;48.170;8.596;2024-01-25T10:46:49;9.90;99.90
21662;DHT22;10992;48.170;8.596;2024-01-25T10:49:17;9.80;99.90
21662;DHT22;10992;48.170;8.596;2024-01-25T10:51:45;9.90;99.90
21662;DHT22;10992;48.170;8.596;2024-01-25T10:54:13;10.00;99.90
21662;DHT22;10992;48.170;8.596;2024-01-25T10:56:46;10.30;99.90
21662;DHT22;10992;48.170;8.596;2024-01-25T10:59:15;10.80;99.90
21662;DHT22;10992;48.170;8.596;2024-01-25T11:01:46;11.30;99.90
21662;DHT22;10992;48.170;8.596;2024-01-25T11:04:16;11.80;99.90
21662;DHT22;10992;48.170;8.596;2024-01-25T11:06:44;12.10;99.90
21662;DHT22;10992;48.170;8.596;2024-01-25T11:09:21;11.70;99.90
21662;DHT22;10992;48.170;8.596;2024-01-25T11:11:48;11.30;99.90
21662;DHT22;10992;48.170;8.596;2024-01-25T11:14:16;11.50;99.90
21662;DHT22;10992;48.170;8.596;2024-01-25T11:16:44;11.80;99.90
21662;DHT22;10992;48.170;8.596;2024-01-25T11:19:19;11.70;99.90
21662;DHT22;10992;48.170;8.596;2024-01-25T11:21:47;11.70;99.90
21662;DHT22;10992;48.170;8.596;2024-01-25T11:24:20;11.90;99.90
21662;DHT22;10992;48.170;8.596;2024-01-25T11:26:48;12.00;99.90
21662;DHT22;10992;48.170;8.596;2024-01-25T11:29:17;11.70;99.90
21662;DHT22;10992;48.170;8.596;2024-01-25T11:31:46;11.80;99.90
21662;DHT22;10992;48.170;8.596;2024-01-25T11:34:17;11.90;99.90
21662;DHT22;10992;48.170;8.596;2024-01-25T11:36:47;11.50;99.90
21662;DHT22;10992;48.170;8.596;2024-01-25T11:39:15;11.60;99.90
21662;DHT22;10992;48.170;8.596;2024-01-25T11:41:44;11.70;99.90
21662;DHT22;10992;48.170;8.596;2024-01-25T11:44:12;11.60;99.90
21662;DHT22;10992;48.170;8.596;2024-01-25T11:46:40;11.50;99.90
21662;DHT22;10992;48.170;8.596;2024-01-25T11:49:07;11.20;99.90
21662;DHT22;10992;48.170;8.596;2024-01-25T11:51:34;11.40;99.90
21662;DHT22;10992;48.170;8.596;2024-01-25T11:54:01;11.40;99.90
21662;DHT22;10992;48.170;8.596;2024-01-25T11:56:32;11.50;99.90
21662;DHT22;10992;48.170;8.596;2024-01-25T11:59:00;11.60;99.90
21662;DHT22;10992;48.170;8.596;2024-01-25T12:01:28;11.40;99.90
21662;DHT22;10992;48.170;8.596;2024-01-25T12:03:58;11.10;99.90
21662;DHT22;10992;48.170;8.596;2024-01-25T12:06:25;10.80;99.90
21662;DHT22;10992;48.170;8.596;2024-01-25T12:08:52;10.60;99.90
21662;DHT22;10992;48.170;8.596;2024-01-25T12:11:20;10.60;99.90
21662;DHT22;10992;48.170;8.596;2024-01-25T12:13:48;10.50;99.90
21662;DHT22;10992;48.170;8.596;2024-01-25T12:16:15;10.90;99.90
21662;DHT22;10992;48.170;8.596;2024-01-25T12:18:43;10.90;99.90
21662;DHT22;10992;48.170;8.596;2024-01-25T12:21:13;11.80;99.90
21662;DHT22;10992;48.170;8.596;2024-01-25T12:23:41;12.40;99.90
21662;DHT22;10992;48.170;8.596;2024-01-25T12:26:10;12.70;99.90
21662;DHT22;10992;48.170;8.596;2024-01-25T12:28:41;13.10;99.90
21662;DHT22;10992;48.170;8.596;2024-01-25T12:31:08;13.10;99.90
21662;DHT22;10992;48.170;8.596;2024-01-25T12:33:35;12.60;99.90
21662;DHT22;10992;48.170;8.596;2024-01-25T12:36:03;12.30;99.90
21662;DHT22;10992;48.170;8.596;2024-01-25T12:38:31;11.90;99.90
21662;DHT22;10992;48.170;8.596;2024-01-25T12:41:01;11.70;99.90
21662;DHT22;10992;48.170;8.596;2024-01-25T12:43:29;11.60;99.90
21662;DHT22;10992;48.170;8.596;2024-01-25T12:45:56;11.90;99.90
21662;DHT22;10992;48.170;8.596;2024-01-25T12:48:34;12.40;99.90
21662;DHT22;10992;48.170;8.596;2024-01-25T12:51:02;12.50;99.90
21662;DHT22;10992;48.170;8.596;2024-01-25T12:53:29;12.30;99.90
21662;DHT22;10992;48.170;8.596;2024-01-25T12:55:55;11.90;99.90
21662;DHT22;10992;48.170;8.596;2024-01-25T12:58:22;11.80;99.90
21662;DHT22;10992;48.170;8.596;2024-01-25T13:00:49;11.80;99.90
21662;DHT22;10992;48.170;8.596;2024-01-25T13:03:17;12.00;99.90
21662;DHT22;10992;48.170;8.596;2024-01-25T13:05:44;12.10;99.90
21662;DHT22;10992;48.170;8.596;2024-01-25T13:08:11;11.80;99.90
21662;DHT22;10992;48.170;8.596;2024-01-25T13:10:38;11.60;99.90
21662;DHT22;10992;48.170;8.596;2024-01-25T13:13:05;11.50;99.90
21662;DHT22;10992;48.170;8.596;2024-01-25T13:15:32;11.30;99.90
21662;DHT22;10992;48.170;8.596;2024-01-25T13:18:00;11.40;99.90
21662;DHT22;10992;48.170;8.596;2024-01-25T13:20:27;11.10;99.90
21662;DHT22;10992;48.170;8.596;2024-01-25T13:22:54;11.00;99.90
21662;DHT22;10992;48.170;8.596;2024-01-25T13:25:21;10.90;99.90
21662;DHT22;10992;48.170;8.596;2024-01-25T13:27:48;10.90;99.90
21662;DHT22;10992;48.170;8.596;2024-01-25T13:30:15;11.00;99.90
21662;DHT22;10992;48.170;8.596;2024-01-25T13:32:42;11.00;99.90
21662;DHT22;10992;48.170;8.596;2024-01-25T13:35:09;11.10;99.90
21662;DHT22;10992;48.170;8.596;2024-01-25T13:37:36;11.00;99.90
21662;DHT22;10992;48.170;8.596;2024-01-25T13:40:03;10.90;99.90
21662;DHT22;10992;48.170;8.596;2024-01-25T13:42:30;10.80;99.90
21662;DHT22;10992;48.170;8.596;2024-01-25T13:44:58;11.00;99.90
21662;DHT22;10992;48.170;8.596;2024-01-25T13:47:25;11.00;99.90
21662;DHT22;10992;48.170;8.596;2024-01-25T13:49:52;11.10;99.90
21662;DHT22;10992;48.170;8.596;2024-01-25T13:52:20;11.00;99.90
21662;DHT22;10992;48.170;8.596;2024-01-25T13:54:47;10.90;99.90
21662;DHT22;10992;48.170;8.596;2024-01-25T13:57:16;10.90;99.90
21662;DHT22;10992;48.170;8.596;2024-01-25T13:59:44;10.70;99.90
21662;DHT22;10992;48.170;8.596;2024-01-25T14:02:11;10.60;99.90
21662;DHT22;10992;48.170;8.596;2024-01-25T14:04:38;10.70;99.90
21662;DHT22;10992;48.170;8.596;2024-01-25T14:07:07;10.70;99.90
21662;DHT22;10992;48.170;8.596;2024-01-25T14:09:34;10.70;99.90
21662;DHT22;10992;48.170;8.596;2024-01-25T14:12:01;10.80;99.90
21662;DHT22;10992;48.170;8.596;2024-01-25T14:14:29;10.80;99.90
21662;DHT22;10992;48.170;8.596;2024-01-25T14:16:56;10.60;99.90
21662;DHT22;10992;48.170;8.596;2024-01-25T14:19:23;10.60;99.90
21662;DHT22;10992;48.170;8.596;2024-01-25T14:21:51;10.60;99.90
21662;DHT22;10992;48.170;8.596;2024-01-25T14:24:38;10.50;99.90
21662;DHT22;10992;48.170;8.596;2024-01-25T14:27:05;10.50;99.90
21662;DHT22;10992;48.170;8.596;2024-01-25T14:29:32;10.50;99.90
21662;DHT22;10992;48.170;8.596;2024-01-25T14:32:01;10.50;99.90
21662;DHT22;10992;48.170;8.596;2024-01-25T14:34:28;10.40;99.90
21662;DHT22;10992;48.170;8.596;2024-01-25T14:36:55;10.40;99.90
21662;DHT22;10992;48.170;8.596;2024-01-25T14:39:22;10.30;99.90
21662;DHT22;10992;48.170;8.596;2024-01-25T14:41:49;10.30;99.90
21662;DHT22;10992;48.170;8.596;2024-01-25T14:44:16;10.20;99.90
21662;DHT22;10992;48.170;8.596;2024-01-25T14:46:43;10.10;99.90
21662;DHT22;10992;48.170;8.596;2024-01-25T14:49:11;9.90;99.90
21662;DHT22;10992;48.170;8.596;2024-01-25T14:51:38;9.90;99.90
21662;DHT22;10992;48.170;8.596;2024-01-25T14:54:05;9.90;99.90
21662;DHT22;10992;48.170;8.596;2024-01-25T14:56:32;10.00;99.90
21662;DHT22;10992;48.170;8.596;2024-01-25T14:58:58;10.00;99.90
21662;DHT22;10992;48.170;8.596;2024-01-25T15:01:28;9.90;99.90
21662;DHT22;10992;48.170;8.596;2024-01-25T15:03:57;9.80;99.90
21662;DHT22;10992;48.170;8.596;2024-01-25T15:06:27;9.70;99.90
21662;DHT22;10992;48.170;8.596;2024-01-25T15:08:54;9.70;99.90
21662;DHT22;10992;48.170;8.596;2024-01-25T15:11:21;9.60;99.90
21662;DHT22;10992;48.170;8.596;2024-01-25T15:13:49;9.60;99.90
21662;DHT22;10992;48.170;8.596;2024-01-25T15:16:16;9.60;99.90
21662;DHT22;10992;48.170;8.596;2024-01-25T15:18:47;9.60;99.90
21662;DHT22;10992;48.170;8.596;2024-01-25T15:21:14;9.60;99.90
21662;DHT22;10992;48.170;8.596;2024-01-25T15:23:41;9.50;99.90
21662;DHT22;10992;48.170;8.596;2024-01-25T15:26:08;9.40;99.90
21662;DHT22;10992;48.170;8.596;2024-01-25T15:28:35;9.40;99.90
21662;DHT22;10992;48.170;8.596;2024-01-25T15:31:02;9.30;99.90
21662;DHT22;10992;48.170;8.596;2024-01-25T15:33:29;9.20;99.90
21662;DHT22;10992;48.170;8.596;2024-01-25T15:35:57;9.20;99.90
21662;DHT22;10992;48.170;8.596;2024-01-25T15:38:24;9.10;99.90
21662;DHT22;10992;48.170;8.596;2024-01-25T15:40:51;9.10;99.90
21662;DHT22;10992;48.170;8.596;2024-01-25T15:43:19;9.00;99.90
21662;DHT22;10992;48.170;8.596;2024-01-25T15:45:45;9.00;99.90